This is the latest recevied weather packets stored in our database for station/object eb1ayw-13. If no packets are shown the sender has not sent any weather packets the latest 10 day(s).
| Time | Temp. | Humidity | Pressure | Rain* | Wind** | Luminosity | Snow |
|---|---|---|---|---|---|---|---|
| 1788156284 | 88° F | 28% | 761.7 mmHg | - | - | - | - |
| 1788155684 | 92° F | 25% | 761.2 mmHg | - | - | - | - |
| 1788155084 | 94° F | 25% | 760.9 mmHg | - | - | - | - |
| 1788154484 | 94° F | 25% | 760.9 mmHg | - | - | - | - |
| 1788153884 | 93° F | 25% | 760.9 mmHg | - | - | - | - |
| 1788153284 | 90° F | 27% | 761.2 mmHg | - | - | - | - |
| 1788152684 | 93° F | 25% | 760.9 mmHg | - | - | - | - |
| 1788152084 | 95° F | 24% | 760.6 mmHg | - | - | - | - |
| 1788151484 | 93° F | 26% | 760.9 mmHg | - | - | - | - |
| 1788150884 | 92° F | 26% | 760.9 mmHg | - | - | - | - |
| 1788150284 | 93° F | 25% | 760.8 mmHg | - | - | - | - |
| 1788149684 | 96° F | 24% | 760.4 mmHg | - | - | - | - |
| 1788149084 | 91° F | 27% | 760.9 mmHg | - | - | - | - |
| 1788148484 | 89° F | 28% | 761.2 mmHg | - | - | - | - |
| 1788147884 | 93° F | 26% | 760.9 mmHg | - | - | - | - |
| 1788147284 | 96° F | 24% | 760.4 mmHg | - | - | - | - |
| 1788146684 | 97° F | 23% | 760.2 mmHg | - | - | - | - |
| 1788146084 | 92° F | 27% | 760.8 mmHg | - | - | - | - |
| 1788145484 | 95° F | 25% | 760.5 mmHg | - | - | - | - |
| 1788144884 | 96° F | 24% | 760.3 mmHg | - | - | - | - |
| 1788144284 | 91° F | 27% | 760.7 mmHg | - | - | - | - |
| 1788143684 | 95° F | 25% | 760.4 mmHg | - | - | - | - |
| 1788143084 | 93° F | 26% | 760.6 mmHg | - | - | - | - |
| 1788142484 | 95° F | 25% | 760.3 mmHg | - | - | - | - |
| 1788141884 | 96° F | 25% | 760.3 mmHg | - | - | - | - |
* Rain since midnight (hover to see other rain measurements)
** Current wind speed in m/s (hover to see current wind gust speed)